createdAt,value
2018-09-19T00:00:42.593Z,19.73
2018-09-19T00:01:42.524Z,19.57
2018-09-19T00:02:42.452Z,19.65
2018-09-19T00:03:42.381Z,19.69
2018-09-19T00:04:42.813Z,19.68
2018-09-19T00:05:42.243Z,19.71
2018-09-19T00:06:42.170Z,19.73
2018-09-19T00:07:42.099Z,19.64
2018-09-19T00:08:42.029Z,19.72
2018-09-19T00:09:42.058Z,19.71
2018-09-19T00:10:41.887Z,19.64
2018-09-19T00:11:41.816Z,19.54
2018-09-19T00:12:41.746Z,19.65
2018-09-19T00:13:41.674Z,19.53
2018-09-19T00:14:41.608Z,19.42
2018-09-19T00:15:41.584Z,19.53
2018-09-19T00:16:41.462Z,19.50
2018-09-19T00:17:41.393Z,19.54
2018-09-19T00:18:41.327Z,19.51
2018-09-19T00:19:41.250Z,19.42
2018-09-19T00:20:41.182Z,19.45
2018-09-19T00:21:41.109Z,19.35
2018-09-19T00:22:41.042Z,19.25
2018-09-19T00:23:40.968Z,19.35
2018-09-19T00:24:40.896Z,19.24
2018-09-19T00:25:40.825Z,19.14
2018-09-19T00:26:40.756Z,19.02
2018-09-19T00:27:40.687Z,18.95
2018-09-19T00:28:40.613Z,19.01
2018-09-19T00:29:40.542Z,18.98
2018-09-19T00:30:40.471Z,18.97
2018-09-19T00:31:40.850Z,18.95
2018-09-19T00:33:27.822Z,18.94
2018-09-19T00:34:27.749Z,18.97
2018-09-19T00:35:27.679Z,18.95
2018-09-19T00:36:27.610Z,18.77
2018-09-19T00:37:27.635Z,18.74
2018-09-19T00:38:27.469Z,18.77
2018-09-19T00:39:27.403Z,18.80
2018-09-19T00:40:27.373Z,18.83
2018-09-19T00:41:27.250Z,18.77
2018-09-19T00:42:27.236Z,18.80
2018-09-19T00:43:27.113Z,18.92
2018-09-19T00:44:27.038Z,18.82
2018-09-19T00:45:26.974Z,18.69
2018-09-19T00:46:26.896Z,18.65
2018-09-19T00:47:26.823Z,18.74
2018-09-19T00:48:26.751Z,18.67
2018-09-19T00:49:26.683Z,18.67
2018-09-19T00:50:26.611Z,18.68
2018-09-19T00:51:26.539Z,18.67
2018-09-19T00:52:26.469Z,18.73
2018-09-19T00:53:26.403Z,18.73
2018-09-19T00:54:26.326Z,18.79
2018-09-19T00:55:26.284Z,18.73
2018-09-19T00:56:26.183Z,18.84
2018-09-19T00:57:26.112Z,18.80
2018-09-19T00:58:26.042Z,18.82
2018-09-19T00:59:25.972Z,18.80
2018-09-19T01:00:25.899Z,18.80
2018-09-19T01:01:25.829Z,18.90
2018-09-19T01:02:25.756Z,18.80
2018-09-19T01:03:25.685Z,18.95
2018-09-19T01:04:25.614Z,18.76
2018-09-19T01:05:25.549Z,18.71
2018-09-19T01:06:25.474Z,18.73
2018-09-19T01:07:25.401Z,18.61
2018-09-19T01:08:25.331Z,18.55
2018-09-19T01:09:25.262Z,18.47
2018-09-19T01:10:25.188Z,18.47
2018-09-19T01:11:25.117Z,18.52
2018-09-19T01:12:25.048Z,18.44
2018-09-19T01:13:24.975Z,18.47
2018-09-19T01:14:24.904Z,18.57
2018-09-19T01:15:24.833Z,18.57
2018-09-19T01:16:24.762Z,18.58
2018-09-19T01:17:24.736Z,18.53
2018-09-19T01:18:24.616Z,18.64
2018-09-19T01:19:24.550Z,18.67
2018-09-19T01:20:24.477Z,18.68
2018-09-19T01:21:24.403Z,18.69
2018-09-19T01:22:24.336Z,18.61
2018-09-19T01:23:24.261Z,18.65
2018-09-19T01:24:24.189Z,18.68
2018-09-19T01:25:24.118Z,18.73
2018-09-19T01:26:24.047Z,18.57
2018-09-19T01:27:23.974Z,18.50
2018-09-19T01:28:23.906Z,18.50
2018-09-19T01:29:23.832Z,18.49
2018-09-19T01:30:23.761Z,18.53
2018-09-19T01:31:23.691Z,18.53
2018-09-19T01:32:23.622Z,18.59
2018-09-19T01:33:23.555Z,18.46
2018-09-19T01:34:23.479Z,18.42
2018-09-19T01:35:23.407Z,18.39
2018-09-19T01:36:23.632Z,18.32
2018-09-19T01:37:23.260Z,18.39
2018-09-19T01:38:23.189Z,18.44
2018-09-19T01:39:23.119Z,18.34
2018-09-19T01:40:23.048Z,18.34
2018-09-19T01:41:22.975Z,18.40
2018-09-19T01:42:22.909Z,18.42
2018-09-19T01:43:22.832Z,18.42
2018-09-19T01:44:22.760Z,18.43
2018-09-19T01:45:22.691Z,18.42
2018-09-19T01:46:22.619Z,18.39
2018-09-19T01:47:22.548Z,18.47
2018-09-19T01:48:22.474Z,18.42
2018-09-19T01:49:22.403Z,18.37
2018-09-19T01:50:22.335Z,18.40
2018-09-19T01:51:22.310Z,18.46
2018-09-19T01:52:22.188Z,18.55
2018-09-19T01:53:22.118Z,18.40
2018-09-19T01:54:22.047Z,18.39
2018-09-19T01:55:21.974Z,18.29
2018-09-19T01:56:22.016Z,18.19
2018-09-19T01:57:21.837Z,18.19
2018-09-19T01:58:21.760Z,18.16
2018-09-19T01:59:21.689Z,18.32
2018-09-19T02:00:21.618Z,18.35
2018-09-19T02:01:21.555Z,18.31
2018-09-19T02:02:21.482Z,18.46
2018-09-19T02:03:21.404Z,18.37
2018-09-19T02:04:21.334Z,18.22
2018-09-19T02:05:21.260Z,18.32
2018-09-19T02:06:21.187Z,18.46
2018-09-19T02:07:21.115Z,18.32
2018-09-19T02:08:21.043Z,18.19
2018-09-19T02:09:20.979Z,18.18
2018-09-19T02:10:20.902Z,18.14
2018-09-19T02:11:20.835Z,18.10
2018-09-19T02:12:20.759Z,18.07
2018-09-19T02:13:20.692Z,17.96
2018-09-19T02:14:20.617Z,17.95
2018-09-19T02:15:20.543Z,17.94
2018-09-19T02:16:20.476Z,17.94
2018-09-19T02:17:20.401Z,17.95
2018-09-19T02:18:20.332Z,18.02
2018-09-19T02:19:20.257Z,17.98
2018-09-19T02:20:20.189Z,17.92
2018-09-19T02:21:20.118Z,17.79
2018-09-19T02:22:20.045Z,17.74
2018-09-19T02:23:19.975Z,17.70
2018-09-19T02:24:19.902Z,17.81
2018-09-19T02:25:19.828Z,17.76
2018-09-19T02:26:19.756Z,17.96
2018-09-19T02:27:19.685Z,18.07
2018-09-19T02:28:19.639Z,18.14
2018-09-19T02:29:19.541Z,18.14
2018-09-19T02:30:19.470Z,18.09
2018-09-19T02:32:01.885Z,18.19
2018-09-19T02:33:01.813Z,18.22
2018-09-19T02:34:01.742Z,18.19
2018-09-19T02:35:01.672Z,18.18
2018-09-19T02:36:01.598Z,18.21
2018-09-19T02:37:01.527Z,18.19
2018-09-19T02:38:01.557Z,18.18
2018-09-19T02:39:01.382Z,18.16
2018-09-19T02:40:01.330Z,18.19
2018-09-19T02:41:01.249Z,18.11
2018-09-19T02:42:01.167Z,18.29
2018-09-19T02:43:01.199Z,18.31
2018-09-19T02:44:01.024Z,18.34
2018-09-19T02:45:00.952Z,18.42
2018-09-19T02:46:00.883Z,18.42
2018-09-19T02:47:00.809Z,18.39
2018-09-19T02:48:00.739Z,18.42
2018-09-19T02:49:00.666Z,18.44
2018-09-19T02:50:00.596Z,18.52
2018-09-19T02:51:00.521Z,18.49
2018-09-19T02:52:00.462Z,18.52
2018-09-19T02:53:00.385Z,18.52
2018-09-19T02:54:00.316Z,18.50
2018-09-19T02:55:00.344Z,18.49
2018-09-19T02:56:00.176Z,18.39
2018-09-19T02:57:00.094Z,18.43
2018-09-19T02:58:00.023Z,18.43
2018-09-19T02:59:00.085Z,18.39
2018-09-19T02:59:59.878Z,18.39
2018-09-19T03:00:59.806Z,18.32
2018-09-19T03:01:59.738Z,18.37
2018-09-19T03:02:59.670Z,18.39
2018-09-19T03:03:59.598Z,18.39
2018-09-19T03:04:59.521Z,18.28
2018-09-19T03:05:59.451Z,18.27
2018-09-19T03:06:59.380Z,18.25
2018-09-19T03:07:59.307Z,18.29
2018-09-19T03:08:59.335Z,18.44
2018-09-19T03:09:59.164Z,18.49
2018-09-19T03:10:59.092Z,18.49
2018-09-19T03:11:59.021Z,18.53
2018-09-19T03:12:58.961Z,18.57
2018-09-19T03:13:58.879Z,18.55
2018-09-19T03:14:59.059Z,18.55
2018-09-19T03:15:58.735Z,18.58
2018-09-19T03:16:58.711Z,18.58
2018-09-19T03:17:58.594Z,18.67
2018-09-19T03:18:58.521Z,18.69
2018-09-19T03:19:58.508Z,18.87
2018-09-19T03:20:58.383Z,18.97
2018-09-19T03:21:58.309Z,18.77
2018-09-19T03:22:58.243Z,18.76
2018-09-19T03:23:58.168Z,18.68
2018-09-19T03:24:58.345Z,18.61
2018-09-19T03:25:58.023Z,18.55
2018-09-19T03:26:57.952Z,18.59
2018-09-19T03:27:57.879Z,18.52
2018-09-19T03:28:57.808Z,18.52
2018-09-19T03:29:57.739Z,18.47
2018-09-19T03:30:57.665Z,18.46
2018-09-19T03:31:57.600Z,18.39
2018-09-19T03:32:57.523Z,18.44
2018-09-19T03:33:57.452Z,18.47
2018-09-19T03:34:57.380Z,18.49
2018-09-19T03:35:57.308Z,18.55
2018-09-19T03:36:57.237Z,18.62
2018-09-19T03:37:57.166Z,18.52
2018-09-19T03:38:57.097Z,18.52
2018-09-19T03:39:57.023Z,18.42
2018-09-19T03:40:57.052Z,18.42
2018-09-19T03:41:56.880Z,18.44
2018-09-19T03:42:56.809Z,18.40
2018-09-19T03:43:56.740Z,18.31
2018-09-19T03:44:56.667Z,18.14
2018-09-19T03:45:56.695Z,18.14
2018-09-19T03:46:56.521Z,18.19
2018-09-19T03:47:56.449Z,18.21
2018-09-19T03:48:56.381Z,18.21
2018-09-19T03:49:56.308Z,18.21
2018-09-19T03:50:56.237Z,18.00
2018-09-19T03:51:56.163Z,17.94
2018-09-19T03:52:56.093Z,17.98
2018-09-19T03:53:56.024Z,18.03
2018-09-19T03:54:55.948Z,18.21
2018-09-19T03:55:55.878Z,18.14
2018-09-19T03:56:55.806Z,18.24
2018-09-19T03:57:55.734Z,18.18
2018-09-19T03:58:55.666Z,18.25
2018-09-19T03:59:55.601Z,18.11
2018-09-19T04:00:55.518Z,18.10
2018-09-19T04:01:55.448Z,18.00
2018-09-19T04:02:55.379Z,18.00
2018-09-19T04:03:55.303Z,17.85
2018-09-19T04:04:55.232Z,17.76
2018-09-19T04:05:55.165Z,17.71
2018-09-19T04:06:55.090Z,17.69
2018-09-19T04:07:55.017Z,17.63
2018-09-19T04:08:54.945Z,17.64
2018-09-19T04:09:54.873Z,17.54
2018-09-19T04:10:54.801Z,17.43
2018-09-19T04:11:54.733Z,17.36
2018-09-19T04:12:54.659Z,17.32
2018-09-19T04:13:54.588Z,17.28
2018-09-19T04:14:54.524Z,17.25
2018-09-19T04:15:54.542Z,17.17
2018-09-19T04:16:54.371Z,17.17
2018-09-19T04:17:54.373Z,17.21
2018-09-19T04:18:54.227Z,17.15
2018-09-19T04:19:54.159Z,17.10
2018-09-19T04:20:54.093Z,17.07
2018-09-19T04:21:54.018Z,17.05
2018-09-19T04:22:53.938Z,16.98
2018-09-19T04:23:53.868Z,16.95
2018-09-19T04:24:53.793Z,17.05
2018-09-19T04:25:53.738Z,16.98
2018-09-19T04:26:53.651Z,17.10
2018-09-19T04:27:53.578Z,17.08
2018-09-19T04:28:53.511Z,17.13
2018-09-19T04:29:53.434Z,17.03
2018-09-19T04:30:53.363Z,17.07
2018-09-19T04:31:53.290Z,17.08
2018-09-19T04:32:53.219Z,17.08
2018-09-19T04:33:53.146Z,16.99
2018-09-19T04:34:53.074Z,17.02
2018-09-19T04:35:53.008Z,16.98
2018-09-19T04:36:52.928Z,16.96
2018-09-19T04:37:52.856Z,16.95
2018-09-19T04:38:52.786Z,16.99
2018-09-19T04:39:52.717Z,17.00
2018-09-19T04:40:52.639Z,17.05
2018-09-19T04:41:52.571Z,17.07
2018-09-19T04:42:52.494Z,17.25
2018-09-19T04:43:52.423Z,17.21
2018-09-19T04:44:52.353Z,17.18
2018-09-19T04:45:52.279Z,17.23
2018-09-19T04:46:52.262Z,17.21
2018-09-19T04:47:52.134Z,17.17
2018-09-19T04:48:52.069Z,17.21
2018-09-19T04:49:51.990Z,17.17
2018-09-19T04:50:51.918Z,17.11
2018-09-19T04:51:51.845Z,17.07
2018-09-19T04:52:51.774Z,17.08
2018-09-19T04:53:51.702Z,16.98
2018-09-19T04:54:51.635Z,16.95
2018-09-19T04:55:51.559Z,16.92
2018-09-19T04:56:51.483Z,16.95
2018-09-19T04:57:51.514Z,16.96
2018-09-19T04:58:51.340Z,16.93
2018-09-19T04:59:51.267Z,16.92
2018-09-19T05:00:51.200Z,16.98
2018-09-19T05:01:51.124Z,16.96
2018-09-19T05:02:51.050Z,17.11
2018-09-19T05:03:50.984Z,17.10
2018-09-19T05:04:50.906Z,17.11
2018-09-19T05:05:50.876Z,16.99
2018-09-19T05:06:50.766Z,16.90
2018-09-19T05:07:50.691Z,16.84
2018-09-19T05:08:50.618Z,16.90
2018-09-19T05:09:50.546Z,16.82
2018-09-19T05:10:50.473Z,16.78
2018-09-19T05:11:50.402Z,16.80
2018-09-19T05:12:50.330Z,16.80
2018-09-19T05:13:50.258Z,16.80
2018-09-19T05:14:50.185Z,16.77
2018-09-19T05:15:50.113Z,16.73
2018-09-19T05:16:50.049Z,16.70
2018-09-19T05:17:49.967Z,16.63
2018-09-19T05:18:49.894Z,16.67
2018-09-19T05:19:49.822Z,16.57
2018-09-19T05:20:49.751Z,16.77
2018-09-19T05:21:49.680Z,16.90
2018-09-19T05:22:49.616Z,16.92
2018-09-19T05:23:49.532Z,16.90
2018-09-19T05:24:49.464Z,16.85
2018-09-19T05:25:49.390Z,16.85
2018-09-19T05:26:49.316Z,16.74
2018-09-19T05:27:49.245Z,16.75
2018-09-19T05:28:49.174Z,16.66
2018-09-19T05:29:49.100Z,16.57
2018-09-19T05:30:49.026Z,16.50
2018-09-19T05:31:48.954Z,16.57
2018-09-19T05:32:48.883Z,16.52
2018-09-19T05:33:48.814Z,16.55
2018-09-19T05:34:48.837Z,16.55
2018-09-19T05:35:48.664Z,16.53
2018-09-19T05:36:48.592Z,16.47
2018-09-19T05:37:48.520Z,16.53
2018-09-19T05:38:48.449Z,16.57
2018-09-19T05:39:48.375Z,16.57
2018-09-19T05:40:48.302Z,16.55
2018-09-19T05:41:48.329Z,16.57
2018-09-19T05:42:48.157Z,16.56
2018-09-19T05:43:48.084Z,16.56
2018-09-19T05:44:48.011Z,16.65
2018-09-19T05:45:47.939Z,16.73
2018-09-19T05:46:47.867Z,16.70
2018-09-19T05:47:47.797Z,16.71
2018-09-19T05:48:47.722Z,16.73
2018-09-19T05:49:47.650Z,16.75
2018-09-19T05:50:47.578Z,16.82
2018-09-19T05:51:47.556Z,16.84
2018-09-19T05:52:47.446Z,16.84
2018-09-19T05:53:47.366Z,16.95
2018-09-19T05:54:47.288Z,16.95
2018-09-19T05:55:47.214Z,16.93
2018-09-19T05:56:47.142Z,16.92
2018-09-19T05:57:47.069Z,17.00
2018-09-19T05:58:46.998Z,16.95
2018-09-19T05:59:46.924Z,17.07
2018-09-19T06:00:46.857Z,17.05
2018-09-19T06:01:46.782Z,17.15
2018-09-19T06:02:46.707Z,17.21
2018-09-19T06:03:46.637Z,17.18
2018-09-19T06:04:46.611Z,17.15
2018-09-19T06:05:46.492Z,17.21
2018-09-19T06:06:46.423Z,17.17
2018-09-19T06:07:46.346Z,17.20
2018-09-19T06:08:46.274Z,17.25
2018-09-19T06:09:46.205Z,17.23
2018-09-19T06:10:46.130Z,17.29
2018-09-19T06:11:46.057Z,17.14
2018-09-19T06:12:45.992Z,17.17
2018-09-19T06:13:45.917Z,17.17
2018-09-19T06:14:45.841Z,17.21
2018-09-19T06:15:45.769Z,17.20
2018-09-19T06:16:45.699Z,17.20
2018-09-19T06:17:45.625Z,17.23
2018-09-19T06:18:45.556Z,17.30
2018-09-19T06:19:45.481Z,17.25
2018-09-19T06:20:45.410Z,17.36
2018-09-19T06:21:45.336Z,17.26
2018-09-19T06:22:45.265Z,17.29
2018-09-19T06:23:45.191Z,17.36
2018-09-19T06:24:45.119Z,17.36
2018-09-19T06:25:45.050Z,17.51
2018-09-19T06:26:44.978Z,17.60
2018-09-19T06:27:44.910Z,17.60
2018-09-19T06:28:44.833Z,17.73
2018-09-19T06:29:44.762Z,17.70
2018-09-19T06:30:44.687Z,17.67
2018-09-19T06:31:44.616Z,17.67
2018-09-19T06:32:44.558Z,17.69
2018-09-19T06:33:44.472Z,17.81
2018-09-19T06:34:44.400Z,17.84
2018-09-19T06:35:44.328Z,17.91
2018-09-19T06:36:44.261Z,18.02
2018-09-19T06:37:44.184Z,18.19
2018-09-19T06:38:44.111Z,18.19
2018-09-19T06:39:44.041Z,18.07
2018-09-19T06:40:44.177Z,18.00
2018-09-19T06:41:43.897Z,18.03
2018-09-19T06:42:43.858Z,18.07
2018-09-19T06:43:43.753Z,18.03
2018-09-19T06:44:43.686Z,18.11
2018-09-19T06:45:43.676Z,18.04
2018-09-19T06:46:43.573Z,18.19
2018-09-19T06:47:43.468Z,18.14
2018-09-19T06:48:43.446Z,18.11
2018-09-19T06:49:43.325Z,18.19
2018-09-19T06:50:43.253Z,18.34
2018-09-19T06:51:43.182Z,18.35
2018-09-19T06:52:43.109Z,18.42
2018-09-19T06:53:43.038Z,18.43
2018-09-19T06:54:42.976Z,18.47
2018-09-19T06:55:42.892Z,18.50
2018-09-19T06:56:42.872Z,18.61
2018-09-19T06:57:42.750Z,18.71
2018-09-19T06:58:42.680Z,18.67
2018-09-19T06:59:42.699Z,18.76
2018-09-19T07:00:42.535Z,18.76
2018-09-19T07:01:42.463Z,18.82
2018-09-19T07:02:42.392Z,18.73
2018-09-19T07:03:42.323Z,18.89
2018-09-19T07:04:42.250Z,18.90
2018-09-19T07:05:42.272Z,18.98
2018-09-19T07:06:42.109Z,19.15
2018-09-19T07:07:42.036Z,19.18
2018-09-19T07:08:41.964Z,19.25
2018-09-19T07:09:41.899Z,19.35
2018-09-19T07:10:41.867Z,19.46
2018-09-19T07:11:41.752Z,19.46
2018-09-19T07:12:41.687Z,19.53
2018-09-19T07:13:41.610Z,19.61
2018-09-19T07:14:41.537Z,19.73
2018-09-19T07:15:41.468Z,19.76
2018-09-19T07:16:41.395Z,19.83
2018-09-19T07:17:41.324Z,19.93
2018-09-19T07:18:41.273Z,20.03
2018-09-19T07:19:41.182Z,20.15
2018-09-19T07:20:41.161Z,20.15
2018-09-19T07:21:41.040Z,20.20
2018-09-19T07:22:40.975Z,20.19
2018-09-19T07:23:40.918Z,20.24
2018-09-19T07:24:40.828Z,20.46
2018-09-19T07:25:40.858Z,20.54
2018-09-19T07:26:40.688Z,20.54
2018-09-19T07:27:40.615Z,20.65
2018-09-19T07:28:40.546Z,20.72
2018-09-19T07:29:40.477Z,20.68
2018-09-19T07:30:40.403Z,20.79
2018-09-19T07:31:40.334Z,20.68
2018-09-19T07:32:40.263Z,20.87
2018-09-19T07:33:40.197Z,20.86
2018-09-19T07:34:40.124Z,20.93
2018-09-19T07:35:40.051Z,21.11
2018-09-19T07:36:39.985Z,21.23
2018-09-19T07:37:39.912Z,21.31
2018-09-19T07:38:39.841Z,21.42
2018-09-19T07:39:39.772Z,21.64
2018-09-19T07:40:39.702Z,21.74
2018-09-19T07:41:39.631Z,21.86
2018-09-19T07:42:39.560Z,21.92
2018-09-19T07:43:39.493Z,22.02
2018-09-19T07:44:39.423Z,22.01
2018-09-19T07:45:39.351Z,22.16
2018-09-19T07:46:39.289Z,22.17
2018-09-19T07:47:39.210Z,22.22
2018-09-19T07:48:39.145Z,22.31
2018-09-19T07:49:39.070Z,22.28
2018-09-19T07:50:39.004Z,22.22
2018-09-19T07:51:38.933Z,22.20
2018-09-19T07:52:38.862Z,22.34
2018-09-19T07:53:38.791Z,22.31
2018-09-19T07:54:38.738Z,22.30
2018-09-19T07:55:38.653Z,22.35
2018-09-19T07:56:38.581Z,22.30
2018-09-19T07:57:38.512Z,22.34
2018-09-19T07:58:38.439Z,22.35
2018-09-19T07:59:38.373Z,22.38
2018-09-19T08:00:38.333Z,22.47
2018-09-19T08:01:38.234Z,22.59
2018-09-19T08:02:38.163Z,22.71
2018-09-19T08:03:38.095Z,22.81
2018-09-19T08:04:38.026Z,22.87
2018-09-19T08:05:37.959Z,22.90
2018-09-19T08:06:37.884Z,22.97
2018-09-19T08:07:37.815Z,22.97
2018-09-19T08:08:37.746Z,22.96
2018-09-19T08:09:37.676Z,23.05
2018-09-19T08:10:37.610Z,23.12
2018-09-19T08:11:37.538Z,23.12
2018-09-19T08:12:37.472Z,23.14
2018-09-19T08:13:37.399Z,23.11
2018-09-19T08:14:37.333Z,23.20
2018-09-19T08:15:37.262Z,23.27
2018-09-19T08:16:37.202Z,23.42
2018-09-19T08:17:37.124Z,23.34
2018-09-19T08:18:37.052Z,23.43
2018-09-19T08:19:36.988Z,23.40
2018-09-19T08:20:36.964Z,23.50
2018-09-19T08:21:36.847Z,23.56
2018-09-19T08:22:36.801Z,23.56
2018-09-19T08:23:36.712Z,23.67
2018-09-19T08:24:36.639Z,23.71
2018-09-19T08:25:36.579Z,23.78
2018-09-19T08:26:36.499Z,23.75
2018-09-19T08:27:36.433Z,23.83
2018-09-19T08:28:36.364Z,23.79
2018-09-19T08:29:36.299Z,23.82
2018-09-19T08:30:36.274Z,23.86
2018-09-19T08:31:36.154Z,24.05
2018-09-19T08:32:36.090Z,24.15
2018-09-19T08:33:36.016Z,24.22
2018-09-19T08:34:35.948Z,24.38
2018-09-19T08:35:35.905Z,24.44
2018-09-19T08:36:35.812Z,24.57
2018-09-19T08:37:35.745Z,24.63
2018-09-19T08:38:35.676Z,24.86
2018-09-19T08:39:35.606Z,24.91
2018-09-19T08:40:35.539Z,24.86
2018-09-19T08:41:35.476Z,24.94
2018-09-19T08:42:35.400Z,25.00
2018-09-19T08:43:35.331Z,25.08
2018-09-19T08:44:35.263Z,25.17
2018-09-19T08:45:35.193Z,25.15
2018-09-19T08:46:35.127Z,25.15
2018-09-19T08:47:35.057Z,25.17
2018-09-19T08:48:34.988Z,25.30
2018-09-19T08:49:34.920Z,25.35
2018-09-19T08:50:34.889Z,25.38
2018-09-19T08:51:34.790Z,25.46
2018-09-19T08:52:34.714Z,25.35
2018-09-19T08:53:34.645Z,25.34
2018-09-19T08:54:34.576Z,25.40
2018-09-19T08:55:34.508Z,25.40
2018-09-19T08:56:34.440Z,25.42
2018-09-19T08:57:34.374Z,25.35
2018-09-19T08:58:34.303Z,25.38
2018-09-19T08:59:34.235Z,25.41
2018-09-19T09:00:34.226Z,25.42
2018-09-19T09:01:34.096Z,25.35
2018-09-19T09:02:34.033Z,25.38
2018-09-19T09:03:33.961Z,25.35
2018-09-19T09:04:33.895Z,25.40
2018-09-19T09:05:33.912Z,25.41
2018-09-19T09:06:33.805Z,25.38
2018-09-19T09:07:33.689Z,25.37
2018-09-19T09:08:33.620Z,25.45
2018-09-19T09:09:33.552Z,25.56
2018-09-19T09:10:33.483Z,25.60
2018-09-19T09:11:33.413Z,25.59
2018-09-19T09:12:33.381Z,25.68
2018-09-19T09:13:33.281Z,25.65
2018-09-19T09:14:33.211Z,25.74
2018-09-19T09:15:33.147Z,25.74
2018-09-19T09:16:33.077Z,25.78
2018-09-19T09:17:33.056Z,25.84
2018-09-19T09:18:32.940Z,25.92
2018-09-19T09:19:32.870Z,25.90
2018-09-19T09:20:32.859Z,25.99
2018-09-19T09:21:32.736Z,26.02
2018-09-19T09:22:32.666Z,26.07
2018-09-19T09:23:32.599Z,25.99
2018-09-19T09:24:32.535Z,25.84
2018-09-19T09:25:32.464Z,25.84
2018-09-19T09:26:32.399Z,26.01
2018-09-19T09:27:32.330Z,26.08
2018-09-19T09:28:32.259Z,25.96
2018-09-19T09:29:32.193Z,26.12
2018-09-19T09:30:32.128Z,26.11
2018-09-19T09:31:32.057Z,26.24
2018-09-19T09:32:31.990Z,26.15
2018-09-19T09:33:31.922Z,26.20
2018-09-19T09:34:31.852Z,26.12
2018-09-19T09:35:31.786Z,26.24
2018-09-19T09:36:31.718Z,26.24
2018-09-19T09:37:31.653Z,26.34
2018-09-19T09:38:31.583Z,26.45
2018-09-19T09:39:31.514Z,26.43
2018-09-19T09:40:31.488Z,26.42
2018-09-19T09:41:31.380Z,26.40
2018-09-19T09:42:31.413Z,26.45
2018-09-19T09:43:31.278Z,26.42
2018-09-19T09:44:31.176Z,26.49
2018-09-19T09:45:31.117Z,26.50
2018-09-19T09:46:31.042Z,26.50
2018-09-19T09:47:31.089Z,26.50
2018-09-19T09:48:30.904Z,26.46
2018-09-19T09:49:30.838Z,26.57
2018-09-19T09:50:30.834Z,26.45
2018-09-19T09:51:30.701Z,26.53
2018-09-19T09:52:30.636Z,26.60
2018-09-19T09:54:30.501Z,26.76
2018-09-19T09:55:30.432Z,26.72
2018-09-19T09:56:30.368Z,26.69
2018-09-19T09:57:30.298Z,26.69
2018-09-19T09:58:30.229Z,26.79
2018-09-19T09:59:30.164Z,26.76
2018-09-19T10:00:30.101Z,26.71
2018-09-19T10:01:30.032Z,26.71
2018-09-19T10:02:29.962Z,26.89
2018-09-19T10:03:29.897Z,26.89
2018-09-19T10:04:29.825Z,26.89
2018-09-19T10:05:29.765Z,26.99
2018-09-19T10:06:29.749Z,27.05
2018-09-19T10:07:29.674Z,26.97
2018-09-19T10:08:29.556Z,27.09
2018-09-19T10:09:29.490Z,27.07
2018-09-19T10:10:29.421Z,27.13
2018-09-19T10:11:29.353Z,27.09
2018-09-19T10:12:29.288Z,26.98
2018-09-19T10:13:29.220Z,27.08
2018-09-19T10:14:29.152Z,26.97
2018-09-19T10:15:29.085Z,27.02
2018-09-19T10:16:29.017Z,27.09
2018-09-19T10:17:29.001Z,27.17
2018-09-19T10:18:28.882Z,27.19
2018-09-19T10:19:28.816Z,27.14
2018-09-19T10:20:28.749Z,27.14
2018-09-19T10:21:28.681Z,26.99
2018-09-19T10:22:28.616Z,26.95
2018-09-19T10:23:28.546Z,26.94
2018-09-19T10:24:28.479Z,26.92
2018-09-19T10:25:28.412Z,26.97
2018-09-19T10:26:28.344Z,27.08
2018-09-19T10:27:28.277Z,27.19
2018-09-19T10:28:28.212Z,27.39
2018-09-19T10:29:28.183Z,27.39
2018-09-19T10:30:28.077Z,27.32
2018-09-19T10:31:28.010Z,27.35
2018-09-19T10:32:27.942Z,27.27
2018-09-19T10:33:27.876Z,27.34
2018-09-19T10:34:27.808Z,27.36
2018-09-19T10:35:27.823Z,27.46
2018-09-19T10:36:27.674Z,27.57
2018-09-19T10:37:27.608Z,27.67
2018-09-19T10:38:27.539Z,27.79
2018-09-19T10:39:27.474Z,27.89
2018-09-19T10:40:27.408Z,27.92
2018-09-19T10:41:27.339Z,27.94
2018-09-19T10:42:27.272Z,27.98
2018-09-19T10:43:27.208Z,28.04
2018-09-19T10:44:27.138Z,27.99
2018-09-19T10:45:27.072Z,28.10
2018-09-19T10:46:27.003Z,28.10
2018-09-19T10:47:26.937Z,27.99
2018-09-19T10:48:26.871Z,28.09
2018-09-19T10:49:26.880Z,28.09
2018-09-19T10:50:26.737Z,28.02
2018-09-19T10:51:26.675Z,28.07
2018-09-19T10:52:26.604Z,28.17
2018-09-19T10:53:26.587Z,28.25
2018-09-19T10:54:26.474Z,28.36
2018-09-19T10:55:26.403Z,28.28
2018-09-19T10:56:26.336Z,28.36
2018-09-19T10:57:26.270Z,28.43
2018-09-19T10:58:26.202Z,28.35
2018-09-19T10:59:26.137Z,28.31
2018-09-19T11:00:26.070Z,28.35
2018-09-19T11:01:26.003Z,28.35
2018-09-19T11:02:25.936Z,28.61
2018-09-19T11:03:25.870Z,28.87
2018-09-19T11:04:25.805Z,29.19
2018-09-19T11:05:25.738Z,29.21
2018-09-19T11:06:25.669Z,28.96
2018-09-19T11:07:25.603Z,28.96
2018-09-19T11:08:25.537Z,28.91
2018-09-19T11:09:25.472Z,28.71
2018-09-19T11:10:25.406Z,28.75
2018-09-19T11:11:25.340Z,28.86
2018-09-19T11:12:25.274Z,28.90
2018-09-19T11:13:25.208Z,28.87
2018-09-19T11:14:25.193Z,28.94
2018-09-19T11:16:25.011Z,29.18
2018-09-19T11:17:24.945Z,29.28
2018-09-19T11:18:24.879Z,29.32
2018-09-19T11:19:24.816Z,29.37
2018-09-19T11:20:24.753Z,29.55
2018-09-19T11:21:24.685Z,29.65
2018-09-19T11:22:24.617Z,29.73
2018-09-19T11:24:24.536Z,30.22
2018-09-19T11:25:24.419Z,30.37
2018-09-19T11:26:24.372Z,30.77
2018-09-19T11:27:24.290Z,31.11
2018-09-19T11:28:24.225Z,31.11
2018-09-19T11:29:24.160Z,31.33
2018-09-19T11:30:26.765Z,31.52
2018-09-19T11:31:24.031Z,32.08
2018-09-19T11:32:23.968Z,32.53
2018-09-19T11:33:23.907Z,32.95
2018-09-19T11:35:06.337Z,32.97
2018-09-19T11:36:06.280Z,33.27
2018-09-19T11:37:06.214Z,33.17
2018-09-19T11:38:06.151Z,33.58
2018-09-19T11:39:06.090Z,33.64
2018-09-19T11:40:06.027Z,32.97
2018-09-19T11:41:06.017Z,32.87
2018-09-19T11:42:05.906Z,33.17
2018-09-19T11:43:05.846Z,33.34
2018-09-19T11:44:05.786Z,33.24
2018-09-19T11:45:05.727Z,33.56
2018-09-19T11:46:05.717Z,33.42
2018-09-19T11:47:05.605Z,33.66
2018-09-19T11:48:05.546Z,33.77
2018-09-19T11:49:05.486Z,33.63
2018-09-19T11:50:05.426Z,33.55
2018-09-19T11:51:05.366Z,34.22
2018-09-19T11:53:52.765Z,34.57
2018-09-19T11:54:52.707Z,34.97
2018-09-19T11:55:52.646Z,35.19
2018-09-19T11:56:52.590Z,35.34
2018-09-19T11:57:52.532Z,35.17
2018-09-19T11:58:52.470Z,35.20
2018-09-19T12:00:52.356Z,34.60
2018-09-19T12:02:52.333Z,34.67
2018-09-19T12:03:52.174Z,34.94
2018-09-19T12:04:52.116Z,34.97
2018-09-19T12:05:52.059Z,35.61
2018-09-19T12:06:52.000Z,35.94
2018-09-19T12:07:51.993Z,36.55
2018-09-19T12:09:51.828Z,35.39
2018-09-19T12:10:51.774Z,35.16
2018-09-19T12:11:51.715Z,34.85
2018-09-19T12:12:51.657Z,34.83
2018-09-19T12:13:51.600Z,34.87
2018-09-19T12:14:51.545Z,33.74
2018-09-19T12:15:51.487Z,33.83
2018-09-19T12:16:51.430Z,34.25
2018-09-19T12:17:51.374Z,34.80
2018-09-19T12:18:51.318Z,35.38
2018-09-19T12:19:51.263Z,36.40
2018-09-19T12:20:51.206Z,36.49
2018-09-19T12:21:51.152Z,37.08
2018-09-19T12:22:51.095Z,36.91
2018-09-19T12:23:51.038Z,36.98
2018-09-19T12:24:50.982Z,35.61
2018-09-19T12:25:50.928Z,34.45
2018-09-19T12:26:50.872Z,34.45
2018-09-19T12:27:50.816Z,34.72
2018-09-19T12:28:50.762Z,34.83
2018-09-19T12:29:50.707Z,34.45
2018-09-19T12:30:50.652Z,34.73
2018-09-19T12:31:50.597Z,34.76
2018-09-19T12:32:50.542Z,35.32
2018-09-19T12:33:50.487Z,35.28
2018-09-19T12:34:50.431Z,34.77
2018-09-19T12:35:50.376Z,34.76
2018-09-19T12:36:50.318Z,34.47
2018-09-19T12:37:50.262Z,34.40
2018-09-19T12:38:50.208Z,34.73
2018-09-19T12:39:50.153Z,34.99
2018-09-19T12:40:50.097Z,34.75
2018-09-19T12:41:50.040Z,34.79
2018-09-19T12:42:49.985Z,34.91
2018-09-19T12:43:49.929Z,35.38
2018-09-19T12:44:49.873Z,34.76
2018-09-19T12:45:49.820Z,34.48
2018-09-19T12:46:49.764Z,34.80
2018-09-19T12:47:49.707Z,34.95
2018-09-19T12:48:49.650Z,34.51
2018-09-19T12:49:49.597Z,35.05
2018-09-19T12:50:49.542Z,34.79
2018-09-19T12:51:49.484Z,34.40
2018-09-19T12:52:49.429Z,34.67
2018-09-19T12:53:49.377Z,34.67
2018-09-19T12:54:49.318Z,34.26
2018-09-19T12:55:49.264Z,33.77
2018-09-19T12:56:49.205Z,33.64
2018-09-19T12:57:49.151Z,33.83
2018-09-19T12:58:49.094Z,34.16
2018-09-19T12:59:49.037Z,34.34
2018-09-19T13:00:48.986Z,34.37
2018-09-19T13:01:48.927Z,34.56